createdAt,value
2022-08-18T11:00:13.515Z,4.50
2022-08-18T11:03:39.976Z,4.50
2022-08-18T11:05:46.166Z,3.33
2022-08-18T11:08:20.055Z,3.38
2022-08-18T11:11:27.135Z,3.42
2022-08-18T11:14:08.626Z,2.87
2022-08-18T11:17:08.382Z,2.67
2022-08-18T11:19:42.071Z,2.00
2022-08-18T11:22:34.090Z,2.47
2022-08-18T11:25:04.446Z,2.00
2022-08-18T11:30:31.518Z,2.20
2022-08-18T11:33:04.979Z,1.92
2022-08-18T11:35:44.266Z,1.98
2022-08-18T11:38:20.825Z,2.00
2022-08-18T11:41:12.957Z,2.33
2022-08-18T11:43:43.438Z,2.40
2022-08-18T11:46:28.033Z,2.60
2022-08-18T11:48:58.786Z,2.88
2022-08-18T11:51:32.907Z,2.47
2022-08-18T11:54:23.308Z,2.20
2022-08-18T11:56:51.141Z,2.35
2022-08-18T11:59:53.861Z,2.13
2022-08-18T12:02:21.779Z,2.55
2022-08-18T12:05:03.530Z,2.47
2022-08-18T12:07:57.299Z,2.10
2022-08-18T12:10:29.445Z,2.17
2022-08-18T12:15:47.690Z,2.67
2022-08-18T12:18:26.276Z,2.53
2022-08-18T12:20:58.832Z,2.58
2022-08-18T12:23:28.047Z,2.65
2022-08-18T12:26:26.887Z,2.30
2022-08-18T12:28:54.742Z,2.42
2022-08-18T12:31:42.660Z,2.38
2022-08-18T12:39:58.873Z,2.50
2022-08-18T12:42:27.725Z,2.10
2022-08-18T12:44:55.138Z,2.47
2022-08-18T12:47:25.676Z,2.40
2022-08-18T12:49:58.677Z,2.38
2022-08-18T12:52:29.236Z,1.70
2022-08-18T14:49:04.096Z,1.40
2022-08-18T14:51:33.631Z,1.80
2022-08-18T14:54:02.201Z,2.00
2022-08-18T14:56:33.358Z,1.90
2022-08-18T14:59:07.628Z,2.10
2022-08-18T15:01:42.600Z,1.83
2022-08-18T15:04:19.334Z,1.70
2022-08-18T15:06:56.247Z,2.00
2022-08-18T16:04:47.715Z,3.20
2022-08-18T16:07:18.044Z,3.90
2022-08-18T16:10:04.775Z,3.53
2022-08-18T16:12:32.196Z,3.67
2022-08-18T16:15:00.273Z,3.40
2022-08-18T16:17:31.765Z,3.05
2022-08-18T16:20:00.036Z,3.78
2022-08-18T16:22:32.958Z,3.35
2022-08-18T16:25:02.507Z,3.05
